createdAt,value
2019-04-04T00:01:47.919Z,97.40
2019-04-04T00:04:15.195Z,97.40
2019-04-04T00:06:43.654Z,97.40
2019-04-04T00:09:12.334Z,97.20
2019-04-04T00:11:40.762Z,97.30
2019-04-04T00:14:09.164Z,97.30
2019-04-04T00:16:37.593Z,97.30
2019-04-04T00:19:06.068Z,97.30
2019-04-04T00:21:34.636Z,97.30
2019-04-04T00:24:03.171Z,97.20
2019-04-04T00:26:31.583Z,97.40
2019-04-04T00:29:01.359Z,97.60
2019-04-04T00:31:30.197Z,97.70
2019-04-04T00:33:58.613Z,97.80
2019-04-04T00:36:27.063Z,97.90
2019-04-04T00:38:55.470Z,98.00
2019-04-04T00:41:23.888Z,98.10
2019-04-04T00:43:52.616Z,98.20
2019-04-04T00:46:21.038Z,98.20
2019-04-04T00:48:49.613Z,98.00
2019-04-04T00:51:18.030Z,97.90
2019-04-04T00:53:46.441Z,97.90
2019-04-04T00:56:16.077Z,97.90
2019-04-04T00:58:44.986Z,97.90
2019-04-04T01:01:13.418Z,98.10
2019-04-04T01:03:42.099Z,98.20
2019-04-04T01:06:10.527Z,98.20
2019-04-04T01:08:39.114Z,98.40
2019-04-04T01:11:07.857Z,98.50
2019-04-04T01:13:36.266Z,98.70
2019-04-04T01:16:04.962Z,98.70
2019-04-04T01:18:34.971Z,98.80
2019-04-04T01:21:03.501Z,98.90
2019-04-04T01:23:31.916Z,98.90
2019-04-04T01:26:01.358Z,99.00
2019-04-04T01:28:30.534Z,98.90
2019-04-04T01:30:59.259Z,98.80
2019-04-04T01:33:27.675Z,98.70
2019-04-04T01:35:56.095Z,98.60
2019-04-04T01:38:24.515Z,98.50
2019-04-04T01:40:55.011Z,98.40
2019-04-04T01:43:23.075Z,98.40
2019-04-04T01:45:51.581Z,98.50
2019-04-04T01:48:25.968Z,98.50
2019-04-04T01:50:54.392Z,98.50
2019-04-04T01:53:22.808Z,98.50
2019-04-04T01:55:51.215Z,98.50
2019-04-04T01:58:19.636Z,98.50
2019-04-04T02:00:48.052Z,98.50
2019-04-04T02:03:16.473Z,98.40
2019-04-04T02:05:44.885Z,98.30
2019-04-04T02:08:13.297Z,98.20
2019-04-04T02:10:41.997Z,98.20
2019-04-04T02:13:10.521Z,98.20
2019-04-04T02:15:39.207Z,98.20
2019-04-04T02:18:07.629Z,98.10
2019-04-04T02:20:36.332Z,98.10
2019-04-04T02:23:04.753Z,98.10
2019-04-04T02:25:34.161Z,98.00
2019-04-04T02:28:03.377Z,98.00
2019-04-04T02:30:31.803Z,98.00
2019-04-04T02:33:00.728Z,97.80
2019-04-04T02:35:29.414Z,97.80
2019-04-04T02:37:58.017Z,97.80
2019-04-04T02:40:26.817Z,97.70
2019-04-04T02:42:55.688Z,97.60
2019-04-04T02:45:24.321Z,97.50
2019-04-04T02:47:52.741Z,97.40
2019-04-04T02:50:21.156Z,97.40
2019-04-04T02:52:49.574Z,97.40
2019-04-04T02:55:17.981Z,97.40
2019-04-04T02:57:46.400Z,97.20
2019-04-04T03:00:15.604Z,97.10
2019-04-04T03:02:44.384Z,97.20
2019-04-04T03:05:12.793Z,97.20
2019-04-04T03:07:41.199Z,97.20
2019-04-04T03:10:10.065Z,97.20
2019-04-04T03:12:38.463Z,97.20
2019-04-04T03:15:09.180Z,97.20
2019-04-04T03:17:38.153Z,97.20
2019-04-04T03:20:07.395Z,97.20
2019-04-04T03:22:35.817Z,97.20
2019-04-04T03:25:05.064Z,97.20
2019-04-04T03:27:33.775Z,97.10
2019-04-04T03:30:02.188Z,97.00
2019-04-04T03:32:30.609Z,96.80
2019-04-04T03:34:59.331Z,96.80
2019-04-04T03:37:27.749Z,96.70
2019-04-04T03:39:56.189Z,96.80
2019-04-04T03:42:24.597Z,97.00
2019-04-04T03:44:54.370Z,97.00
2019-04-04T03:47:23.151Z,97.00
2019-04-04T03:49:56.493Z,97.00
2019-04-04T03:52:21.718Z,97.00
2019-04-04T03:54:54.896Z,96.90
2019-04-04T03:57:20.378Z,96.80
2019-04-04T03:59:48.785Z,96.70
2019-04-04T04:02:18.604Z,96.60
2019-04-04T04:04:47.273Z,96.60
2019-04-04T04:07:15.695Z,96.60
2019-04-04T04:09:44.106Z,96.50
2019-04-04T04:12:12.863Z,96.50
2019-04-04T04:14:41.281Z,96.30
2019-04-04T04:17:11.585Z,96.20
2019-04-04T04:19:39.829Z,96.20
2019-04-04T04:22:08.226Z,96.20
2019-04-04T04:24:36.723Z,96.50
2019-04-04T04:27:05.219Z,96.40
2019-04-04T04:29:33.633Z,96.40
2019-04-04T04:32:02.045Z,96.30
2019-04-04T04:34:33.951Z,96.30
2019-04-04T04:37:00.653Z,96.40
2019-04-04T04:39:36.055Z,96.50
2019-04-04T04:42:01.936Z,96.60
2019-04-04T04:44:30.442Z,96.70
2019-04-04T04:46:58.848Z,96.50
2019-04-04T04:49:27.257Z,96.40
2019-04-04T04:51:55.687Z,96.40
2019-04-04T04:54:24.929Z,96.40
2019-04-04T04:56:53.405Z,96.50
2019-04-04T04:59:21.817Z,96.60
2019-04-04T05:01:51.182Z,96.70
2019-04-04T05:04:19.836Z,96.80
2019-04-04T05:06:48.406Z,96.80
2019-04-04T05:09:16.826Z,96.80
2019-04-04T05:11:45.229Z,96.90
2019-04-04T05:14:13.742Z,97.10
2019-04-04T05:16:42.450Z,97.30
2019-04-04T05:19:10.883Z,97.30
2019-04-04T05:21:39.653Z,97.20
2019-04-04T05:24:08.114Z,97.30
2019-04-04T05:26:38.562Z,97.30
2019-04-04T05:29:06.693Z,97.40
2019-04-04T05:31:35.135Z,97.30
2019-04-04T05:34:04.082Z,97.20
2019-04-04T05:36:36.044Z,97.10
2019-04-04T05:39:03.380Z,97.10
2019-04-04T05:41:31.791Z,96.90
2019-04-04T05:44:00.211Z,96.90
2019-04-04T05:46:28.626Z,96.90
2019-04-04T05:48:57.674Z,96.80
2019-04-04T05:51:27.173Z,96.80
2019-04-04T05:53:55.614Z,97.00
2019-04-04T05:56:24.399Z,97.10
2019-04-04T05:58:53.771Z,97.10
2019-04-04T06:01:23.075Z,97.00
2019-04-04T06:03:51.504Z,96.90
2019-04-04T06:06:19.993Z,96.50
2019-04-04T06:08:48.720Z,96.20
2019-04-04T06:11:17.134Z,96.20
2019-04-04T06:13:45.558Z,96.50
2019-04-04T06:16:13.974Z,96.80
2019-04-04T06:18:42.976Z,96.90
2019-04-04T06:21:12.284Z,97.10
2019-04-04T06:23:40.702Z,97.00
2019-04-04T06:26:09.141Z,97.10
2019-04-04T06:28:37.588Z,97.20
2019-04-04T06:31:06.358Z,97.20
2019-04-04T06:33:35.293Z,97.30
2019-04-04T06:36:04.749Z,97.30
2019-04-04T06:38:33.158Z,97.50
2019-04-04T06:41:01.597Z,97.70
2019-04-04T06:43:31.291Z,97.70
2019-04-04T06:45:59.674Z,97.50
2019-04-04T06:48:33.515Z,97.20
2019-04-04T06:51:00.966Z,97.30
2019-04-04T06:53:29.443Z,97.70
2019-04-04T06:56:00.399Z,97.90
2019-04-04T06:58:28.725Z,98.00
2019-04-04T07:01:00.245Z,98.00
2019-04-04T07:03:39.197Z,98.00
2019-04-04T07:12:42.667Z,97.90
2019-04-04T07:15:15.559Z,97.80
2019-04-04T07:17:42.138Z,98.10
2019-04-04T07:20:12.395Z,98.20
2019-04-04T07:22:41.093Z,98.30
2019-04-04T07:25:10.022Z,98.30
2019-04-04T07:27:38.462Z,98.20
2019-04-04T07:30:09.514Z,98.30
2019-04-04T07:32:40.847Z,98.40
2019-04-04T07:35:09.375Z,98.50
2019-04-04T07:37:37.874Z,98.70
2019-04-04T07:40:07.034Z,98.60
2019-04-04T07:42:35.453Z,98.60
2019-04-04T07:45:07.158Z,98.80
2019-04-04T07:47:35.576Z,98.80
2019-04-04T07:50:05.733Z,99.00
2019-04-04T07:52:34.174Z,99.00
2019-04-04T07:55:02.580Z,99.10
2019-04-04T07:57:30.991Z,99.20
2019-04-04T08:00:00.395Z,99.30
2019-04-04T08:02:28.802Z,99.10
2019-04-04T08:04:57.228Z,98.80
2019-04-04T08:07:25.636Z,98.90
2019-04-04T08:09:54.053Z,99.00
2019-04-04T08:12:22.490Z,99.10
2019-04-04T08:14:50.899Z,98.40
2019-04-04T08:17:19.322Z,98.60
2019-04-04T08:19:59.134Z,98.50
2019-04-04T08:22:18.320Z,98.70
2019-04-04T08:24:47.020Z,98.40
2019-04-04T08:27:15.429Z,98.20
2019-04-04T08:29:44.165Z,98.20
2019-04-04T08:32:12.605Z,97.30
2019-04-04T08:34:41.062Z,97.30
2019-04-04T08:37:09.812Z,97.40
2019-04-04T08:39:38.499Z,97.30
2019-04-04T08:42:06.925Z,97.20
2019-04-04T08:44:35.316Z,97.50
2019-04-04T08:47:13.810Z,97.60
2019-04-04T08:49:42.228Z,97.10
2019-04-04T08:52:16.578Z,97.30
2019-04-04T08:54:40.775Z,96.90
2019-04-04T08:57:09.190Z,96.70
2019-04-04T08:59:37.602Z,96.90
2019-04-04T09:02:06.181Z,97.10
2019-04-04T09:04:34.597Z,97.00
2019-04-04T09:07:03.061Z,96.50
2019-04-04T09:09:34.498Z,96.30
2019-04-04T09:12:01.970Z,95.20
2019-04-04T09:14:30.383Z,95.70
2019-04-04T09:16:58.812Z,96.10
2019-04-04T09:19:27.211Z,96.30
2019-04-04T09:21:55.619Z,95.20
2019-04-04T09:24:24.034Z,95.40
2019-04-04T09:26:52.438Z,95.20
2019-04-04T09:29:20.861Z,95.30
2019-04-04T09:31:49.681Z,95.10
2019-04-04T09:34:18.106Z,95.50
2019-04-04T09:36:46.506Z,95.50
2019-04-04T09:39:14.923Z,95.00
2019-04-04T09:41:43.330Z,95.70
2019-04-04T09:44:11.751Z,95.70
2019-04-04T09:46:40.155Z,94.90
2019-04-04T09:49:08.577Z,94.20
2019-04-04T09:51:37.057Z,94.90
2019-04-04T09:54:05.741Z,95.70
2019-04-04T09:56:34.154Z,95.10
2019-04-04T09:59:02.606Z,95.00
2019-04-04T10:01:31.066Z,95.40
2019-04-04T10:03:59.482Z,95.30
2019-04-04T10:06:27.906Z,95.20
2019-04-04T10:08:56.331Z,95.40
2019-04-04T10:11:24.737Z,95.40
2019-04-04T10:13:53.157Z,95.70
2019-04-04T10:16:21.592Z,95.50
2019-04-04T10:18:49.990Z,95.30
2019-04-04T10:21:18.399Z,95.70
2019-04-04T10:23:46.814Z,96.00
2019-04-04T10:26:15.224Z,95.70
2019-04-04T10:28:43.641Z,95.10
2019-04-04T10:31:12.045Z,95.20
2019-04-04T10:33:42.259Z,95.40
2019-04-04T10:36:10.603Z,95.00
2019-04-04T10:38:39.022Z,94.70
2019-04-04T10:41:07.441Z,94.40
2019-04-04T10:43:35.904Z,95.20
2019-04-04T10:46:04.314Z,95.80
2019-04-04T10:48:32.730Z,95.90
2019-04-04T10:51:01.435Z,94.90
2019-04-04T10:53:29.857Z,95.70
2019-04-04T10:55:58.268Z,96.60
2019-04-04T10:58:26.857Z,96.40
2019-04-04T11:00:55.269Z,96.20
2019-04-04T11:03:23.690Z,95.70
2019-04-04T11:05:52.108Z,95.30
2019-04-04T11:08:20.533Z,95.10
2019-04-04T11:10:48.951Z,94.80
2019-04-04T11:13:17.378Z,94.60
2019-04-04T11:15:46.128Z,94.50
2019-04-04T11:18:14.540Z,94.60
2019-04-04T11:20:42.946Z,94.90
2019-04-04T11:23:11.374Z,94.40
2019-04-04T11:25:39.789Z,95.00
2019-04-04T11:28:08.206Z,95.10
2019-04-04T11:30:36.633Z,94.60
2019-04-04T11:33:05.071Z,95.10
2019-04-04T11:35:33.763Z,94.90
2019-04-04T11:38:02.186Z,94.90
2019-04-04T11:40:30.602Z,95.60
2019-04-04T11:42:59.307Z,94.80
2019-04-04T11:45:27.739Z,94.70
2019-04-04T11:47:56.145Z,95.20
2019-04-04T11:50:24.559Z,95.00
2019-04-04T11:52:55.660Z,94.70
2019-04-04T11:55:24.085Z,95.40
2019-04-04T11:57:52.504Z,95.10
2019-04-04T12:00:34.698Z,95.40
2019-04-04T12:03:03.125Z,94.20
2019-04-04T12:05:32.434Z,94.80
2019-04-04T12:08:00.850Z,94.60
2019-04-04T12:10:29.276Z,95.30
2019-04-04T12:12:58.735Z,95.20
2019-04-04T12:15:27.598Z,95.60
2019-04-04T12:17:56.018Z,95.50
2019-04-04T12:20:24.443Z,95.60
2019-04-04T12:22:52.853Z,94.90
2019-04-04T12:25:21.274Z,95.20
2019-04-04T12:27:49.699Z,95.00
2019-04-04T12:30:20.711Z,94.90
2019-04-04T12:32:49.110Z,95.30
2019-04-04T12:35:17.533Z,95.80
2019-04-04T12:37:45.957Z,95.60
2019-04-04T12:40:20.930Z,94.30
2019-04-04T12:42:45.167Z,95.10
2019-04-04T12:45:14.237Z,95.10
2019-04-04T12:47:42.918Z,95.00
2019-04-04T12:50:11.878Z,93.80
2019-04-04T12:52:40.303Z,94.70
2019-04-04T12:55:09.348Z,94.40
2019-04-04T12:57:37.775Z,94.50
2019-04-04T13:00:08.854Z,95.00
2019-04-04T13:02:37.614Z,95.10
2019-04-04T13:05:12.482Z,94.80
2019-04-04T13:07:40.921Z,95.10
2019-04-04T13:10:11.730Z,93.20
2019-04-04T13:12:40.676Z,93.70
2019-04-04T13:15:10.312Z,93.40
2019-04-04T13:17:38.757Z,93.90
2019-04-04T13:20:08.029Z,93.70
2019-04-04T13:22:36.482Z,94.40
2019-04-04T13:25:07.168Z,94.40
2019-04-04T13:27:35.638Z,94.20
2019-04-04T13:30:11.645Z,93.50
2019-04-04T13:32:40.069Z,93.70
2019-04-04T13:35:09.456Z,93.40
2019-04-04T13:37:37.988Z,92.40
2019-04-04T13:40:07.190Z,92.80
2019-04-04T13:42:35.640Z,93.40
2019-04-04T13:45:06.134Z,93.10
2019-04-04T13:47:38.087Z,93.50
2019-04-04T13:50:11.995Z,93.70
2019-04-04T13:52:39.451Z,93.30
2019-04-04T13:55:08.158Z,93.10
2019-04-04T13:57:39.161Z,93.00
2019-04-04T14:00:09.034Z,92.10
2019-04-04T14:02:37.475Z,91.50
2019-04-04T14:05:10.052Z,92.70
2019-04-04T14:07:38.582Z,92.80
2019-04-04T14:10:10.626Z,92.70
2019-04-04T14:12:39.075Z,92.70
2019-04-04T14:15:09.850Z,91.60
2019-04-04T14:17:38.367Z,92.60
2019-04-04T14:20:09.089Z,92.50
2019-04-04T14:22:37.537Z,93.30
2019-04-04T14:25:06.738Z,93.80
2019-04-04T14:27:35.555Z,94.60
2019-04-04T14:30:07.207Z,94.30
2019-04-04T14:32:35.656Z,93.40
2019-04-04T14:35:06.343Z,92.60
2019-04-04T14:37:34.775Z,92.40
2019-04-04T14:40:04.555Z,92.60
2019-04-04T14:42:32.991Z,93.70
2019-04-04T14:45:02.190Z,92.70
2019-04-04T14:47:33.195Z,93.20
2019-04-04T14:50:04.540Z,93.00
2019-04-04T14:52:31.831Z,93.00
2019-04-04T14:55:00.290Z,92.40
2019-04-04T14:57:28.733Z,92.60
2019-04-04T14:59:57.215Z,93.00
2019-04-04T15:02:25.986Z,92.70
2019-04-04T15:04:54.528Z,91.00
2019-04-04T15:07:23.036Z,90.90
2019-04-04T15:09:51.551Z,90.70
2019-04-04T15:12:20.020Z,91.20
2019-04-04T15:14:48.476Z,91.40
2019-04-04T15:17:16.942Z,92.70
2019-04-04T15:19:45.399Z,90.90
2019-04-04T15:22:13.867Z,91.30
2019-04-04T15:24:42.307Z,91.80
2019-04-04T15:27:10.851Z,91.20
2019-04-04T15:29:39.303Z,91.70
2019-04-04T15:32:07.760Z,92.10
2019-04-04T15:34:45.086Z,93.20
2019-04-04T15:37:13.541Z,93.10
2019-04-04T15:39:41.998Z,94.10
2019-04-04T15:42:10.459Z,94.10
2019-04-04T15:44:39.229Z,94.70
2019-04-04T15:47:08.005Z,94.10
2019-04-04T15:49:40.538Z,94.20
2019-04-04T15:52:09.016Z,94.40
2019-04-04T15:54:37.475Z,94.10
2019-04-04T15:57:10.188Z,94.70
2019-04-04T15:59:40.395Z,94.10
2019-04-04T16:02:08.862Z,94.00
2019-04-04T16:04:37.630Z,94.40
2019-04-04T16:07:06.907Z,94.00
2019-04-04T16:09:38.908Z,94.40
2019-04-04T16:12:07.416Z,94.10
2019-04-04T16:14:35.945Z,93.80
2019-04-04T16:17:04.436Z,93.40
2019-04-04T16:19:32.897Z,92.40
2019-04-04T16:22:01.364Z,92.70
2019-04-04T16:24:29.802Z,93.20
2019-04-04T16:26:58.326Z,92.80
2019-04-04T16:29:26.763Z,93.30
2019-04-04T16:31:55.213Z,93.50
2019-04-04T16:34:23.659Z,94.10
2019-04-04T16:36:52.107Z,93.80
2019-04-04T16:39:20.587Z,93.50
2019-04-04T16:42:01.206Z,93.40
2019-04-04T16:44:19.193Z,93.10
2019-04-04T16:46:48.884Z,93.50
2019-04-04T16:49:17.617Z,93.60
2019-04-04T16:51:46.109Z,93.10
2019-04-04T16:54:14.559Z,93.70
2019-04-04T16:56:45.866Z,93.60
2019-04-04T16:59:14.462Z,93.60
2019-04-04T17:01:42.997Z,93.70
2019-04-04T17:04:11.552Z,93.80
2019-04-04T17:06:40.003Z,94.20
2019-04-04T17:09:08.731Z,94.40
2019-04-04T17:11:37.170Z,94.40
2019-04-04T17:14:05.724Z,94.70
2019-04-04T17:16:35.823Z,94.40
2019-04-04T17:19:04.445Z,94.70
2019-04-04T17:21:32.901Z,94.90
2019-04-04T17:24:01.357Z,95.00
2019-04-04T17:26:29.793Z,94.90
2019-04-04T17:28:58.267Z,94.90
2019-04-04T17:31:27.251Z,94.70
2019-04-04T17:33:56.221Z,94.90
2019-04-04T17:36:24.888Z,94.60
2019-04-04T17:38:55.111Z,94.80
2019-04-04T17:41:24.329Z,94.80
2019-04-04T17:43:52.859Z,94.80
2019-04-04T17:46:22.003Z,94.50
2019-04-04T17:48:50.579Z,94.60
2019-04-04T17:51:19.166Z,94.90
2019-04-04T17:53:48.002Z,95.10
2019-04-04T17:56:16.792Z,95.00
2019-04-04T17:58:45.343Z,94.90
2019-04-04T18:01:13.790Z,95.10
2019-04-04T18:03:42.270Z,94.70
2019-04-04T18:06:11.055Z,94.40
2019-04-04T18:08:39.832Z,94.60
2019-04-04T18:11:08.286Z,94.60
2019-04-04T18:13:36.739Z,94.40
2019-04-04T18:16:05.445Z,94.40
2019-04-04T18:18:33.898Z,94.00
2019-04-04T18:21:02.370Z,94.40
2019-04-04T18:23:30.838Z,94.70
2019-04-04T18:25:59.291Z,94.70
2019-04-04T18:28:27.751Z,94.80
2019-04-04T18:30:56.205Z,94.60
2019-04-04T18:33:25.095Z,94.60
2019-04-04T18:35:54.302Z,94.60
2019-04-04T18:38:23.035Z,94.70
2019-04-04T18:40:51.492Z,94.80
2019-04-04T18:43:19.945Z,94.90
2019-04-04T18:45:48.495Z,94.40
2019-04-04T18:48:17.251Z,94.20
2019-04-04T18:50:45.675Z,94.40
2019-04-04T18:53:14.119Z,94.50
2019-04-04T18:55:42.599Z,94.10
2019-04-04T18:58:11.062Z,93.90
2019-04-04T19:00:39.498Z,93.60
2019-04-04T19:03:07.931Z,93.60
2019-04-04T19:05:36.403Z,93.60
2019-04-04T19:08:14.967Z,93.60
2019-04-04T19:10:43.430Z,93.30
2019-04-04T19:13:11.904Z,93.60
2019-04-04T19:15:40.407Z,93.70
2019-04-04T19:18:08.925Z,93.70
2019-04-04T19:20:37.378Z,93.70
2019-04-04T19:23:05.901Z,93.60
2019-04-04T19:25:34.348Z,93.30
2019-04-04T19:28:02.782Z,93.30
2019-04-04T19:30:31.245Z,93.20
2019-04-04T19:32:59.691Z,93.40
2019-04-04T19:35:28.140Z,93.60
2019-04-04T19:38:00.365Z,93.70
2019-04-04T19:40:27.079Z,93.60
2019-04-04T19:43:01.344Z,93.70
2019-04-04T19:45:29.833Z,93.70
2019-04-04T19:47:58.468Z,93.40
2019-04-04T19:50:26.969Z,93.30
2019-04-04T19:52:55.555Z,93.50
2019-04-04T19:55:24.086Z,93.60
2019-04-04T19:57:59.490Z,93.60
2019-04-04T20:00:27.941Z,93.70
2019-04-04T20:02:56.408Z,93.60
2019-04-04T20:05:24.866Z,93.70
2019-04-04T20:07:53.311Z,93.60
2019-04-04T20:10:21.780Z,93.50
2019-04-04T20:13:03.398Z,93.40
2019-04-04T20:15:31.843Z,93.30
2019-04-04T20:18:08.026Z,93.40
2019-04-04T20:20:36.485Z,93.30
2019-04-04T20:23:05.040Z,93.40
2019-04-04T20:25:33.519Z,93.30
2019-04-04T20:28:01.972Z,93.30
2019-04-04T20:30:39.018Z,93.50
2019-04-04T20:33:08.811Z,93.50
2019-04-04T20:35:37.342Z,93.50
2019-04-04T20:38:05.975Z,93.60
2019-04-04T20:40:34.414Z,93.60
2019-04-04T20:43:02.855Z,93.60
2019-04-04T20:45:31.296Z,93.70
2019-04-04T20:47:59.841Z,93.80
2019-04-04T20:50:28.294Z,93.80
2019-04-04T20:52:57.178Z,93.90
2019-04-04T20:55:25.669Z,93.70
2019-04-04T20:57:54.490Z,93.70
2019-04-04T21:00:22.932Z,93.70
2019-04-04T21:02:51.390Z,93.80
2019-04-04T21:05:20.134Z,93.90
2019-04-04T21:07:48.578Z,94.10
2019-04-04T21:10:17.036Z,94.10
2019-04-04T21:12:45.565Z,94.20
2019-04-04T21:15:14.158Z,94.20
2019-04-04T21:17:42.607Z,94.30
2019-04-04T21:20:11.036Z,94.20
2019-04-04T21:22:39.501Z,94.50
2019-04-04T21:25:08.118Z,94.40
2019-04-04T21:27:36.578Z,94.60
2019-04-04T21:30:07.052Z,94.80
2019-04-04T21:32:35.502Z,95.00
2019-04-04T21:35:08.745Z,95.00
2019-04-04T21:37:37.236Z,95.20
2019-04-04T21:40:06.432Z,95.30
2019-04-04T21:42:35.443Z,95.40
2019-04-04T21:45:07.384Z,95.30
2019-04-04T21:47:36.112Z,95.40
2019-04-04T21:50:06.289Z,95.40
2019-04-04T21:52:34.732Z,95.30
2019-04-04T21:55:03.555Z,95.40
2019-04-04T21:57:32.058Z,95.40
2019-04-04T22:00:00.489Z,95.40
2019-04-04T22:02:29.201Z,95.40
2019-04-04T22:04:57.669Z,95.30
2019-04-04T22:07:26.319Z,95.30
2019-04-04T22:09:54.754Z,95.40
2019-04-04T22:12:23.516Z,95.40
2019-04-04T22:14:51.976Z,95.70
2019-04-04T22:17:20.432Z,95.70
2019-04-04T22:19:48.877Z,95.70
2019-04-04T22:22:17.315Z,95.70
2019-04-04T22:24:45.790Z,95.80
2019-04-04T22:27:14.233Z,95.80
2019-04-04T22:29:42.666Z,95.90
2019-04-04T22:32:11.109Z,95.90
2019-04-04T22:34:39.555Z,96.00
2019-04-04T22:37:08.031Z,96.10
2019-04-04T22:39:36.814Z,96.00
2019-04-04T22:42:05.351Z,96.20
2019-04-04T22:44:35.149Z,96.40
2019-04-04T22:47:04.219Z,96.60
2019-04-04T22:49:33.003Z,96.70
2019-04-04T22:52:01.463Z,96.80
2019-04-04T22:54:29.899Z,96.90
2019-04-04T22:56:58.631Z,96.80
2019-04-04T22:59:27.098Z,96.80
2019-04-04T23:01:55.526Z,96.90
2019-04-04T23:04:23.970Z,97.00
2019-04-04T23:06:52.410Z,97.00
2019-04-04T23:09:20.910Z,97.00
2019-04-04T23:11:49.329Z,97.00
2019-04-04T23:14:17.773Z,97.00
2019-04-04T23:16:46.214Z,97.00
2019-04-04T23:19:14.702Z,97.10
2019-04-04T23:21:43.140Z,97.10
2019-04-04T23:24:11.750Z,97.10
2019-04-04T23:26:40.575Z,97.10
2019-04-04T23:29:09.018Z,97.00
2019-04-04T23:31:37.485Z,97.00
2019-04-04T23:34:05.947Z,97.00
2019-04-04T23:36:35.515Z,96.90
2019-04-04T23:39:07.553Z,96.80
2019-04-04T23:41:35.978Z,96.80
2019-04-04T23:44:04.590Z,96.70
2019-04-04T23:46:33.049Z,96.60
2019-04-04T23:49:01.506Z,96.60
2019-04-04T23:51:29.947Z,96.50
2019-04-04T23:53:58.408Z,96.50
2019-04-04T23:56:27.148Z,96.50
2019-04-04T23:58:55.594Z,96.30
